Strona główna
METAR-TAF:

METAR-TAF

Lotnisko :

Waterville Robert LaFleur Airport

Waterville, Maine, Stany Zjednoczone

Szerokość geograficzna: 44-32N, Długość geograficzna: 069-41W, wysokość: 101 m

Aktualna obserwacja pogody

Raport powstał 59 minut temu, godzina 02:56 UTC
Wiatr 12 kt od północny wschód w porywach dochodzący do 22 kt
Temperatura 4°C
Wilgotność 81%
Ciśnienie 1016 hPa
Widzialność: 16.1 km
Zachmurzenie całkowite na wysokości 1800 ft

METAR: KWVL 040256Z AUTO 04012G22KT 10SM OVC018 04/01 A2999 RMK AO2 SLP186 T00440011 51022

czas: 23:55 (03:55 UTC)


TAF: brakujący

Obserwacja i prognoza pogody dla ponad 4000 lotnisk (raport METAR i TAF).

Dostępne stacje oznaczono żółtymi i czerwonymi punktami na mapie.

Najedź kursorem aby zobaczyć nazwę stacji.

Kliknij aby zobaczyć obserwacje i prognozy pogody.

Aby zmienić mapę: kliknij na zielony przycisk z czarnym krzyżykiem, aby powiększyć; na zielony przycisk z myślnikiem, aby pomniejszyć; na zielone strzałki, aby przejść do map sąsiednich.


METAR-TAF: